sensor_id;sensor_type;location;lat;lon;timestamp;pressure;altitude;pressure_sealevel;temperature;humidity
69796;BME280;57073;45.650;9.612;2023-07-20T00:01:21;98684.50;;;26.41;45.41
69796;BME280;57073;45.650;9.612;2023-07-20T00:06:22;98728.72;;;26.41;45.79
69796;BME280;57073;45.650;9.612;2023-07-20T00:11:26;98727.75;;;26.34;45.76
69796;BME280;57073;45.650;9.612;2023-07-20T00:16:26;98708.47;;;26.53;45.11
69796;BME280;57073;45.650;9.612;2023-07-20T00:21:27;98723.13;;;26.54;45.80
69796;BME280;57073;45.650;9.612;2023-07-20T00:26:27;98743.97;;;25.91;47.54
69796;BME280;57073;45.650;9.612;2023-07-20T00:31:27;98755.44;;;25.24;50.00
69796;BME280;57073;45.650;9.612;2023-07-20T00:36:29;98740.34;;;25.46;49.42
69796;BME280;57073;45.650;9.612;2023-07-20T00:41:29;98726.91;;;25.45;49.73
69796;BME280;57073;45.650;9.612;2023-07-20T00:46:30;98730.78;;;25.16;50.53
69796;BME280;57073;45.650;9.612;2023-07-20T00:51:32;98724.75;;;25.26;49.94
69796;BME280;57073;45.650;9.612;2023-07-20T00:56:33;98732.94;;;25.22;50.02
69796;BME280;57073;45.650;9.612;2023-07-20T01:01:33;98722.75;;;25.39;49.58
69796;BME280;57073;45.650;9.612;2023-07-20T01:12:28;98697.69;;;25.16;50.06
69796;BME280;57073;45.650;9.612;2023-07-20T01:17:30;98690.41;;;25.52;48.64
69796;BME280;57073;45.650;9.612;2023-07-20T01:22:42;98683.25;;;25.63;48.22
69796;BME280;57073;45.650;9.612;2023-07-20T01:33:19;98673.16;;;25.83;48.15
69796;BME280;57073;45.650;9.612;2023-07-20T01:38:21;98663.34;;;25.85;48.21
69796;BME280;57073;45.650;9.612;2023-07-20T01:43:21;98652.28;;;25.85;47.43
69796;BME280;57073;45.650;9.612;2023-07-20T01:48:22;98655.06;;;25.85;47.67
69796;BME280;57073;45.650;9.612;2023-07-20T01:53:22;98653.97;;;25.74;48.15
69796;BME280;57073;45.650;9.612;2023-07-20T01:58:23;98657.25;;;25.64;48.00
69796;BME280;57073;45.650;9.612;2023-07-20T02:03:23;98653.06;;;25.54;48.10
69796;BME280;57073;45.650;9.612;2023-07-20T02:08:25;98658.13;;;25.68;48.59
69796;BME280;57073;45.650;9.612;2023-07-20T02:13:26;98652.63;;;25.68;48.88
69796;BME280;57073;45.650;9.612;2023-07-20T02:18:26;98650.06;;;25.91;48.02
69796;BME280;57073;45.650;9.612;2023-07-20T02:23:26;98656.66;;;25.86;48.21
69796;BME280;57073;45.650;9.612;2023-07-20T02:28:27;98662.47;;;25.53;48.32
69796;BME280;57073;45.650;9.612;2023-07-20T02:33:27;98661.28;;;25.82;47.99
69796;BME280;57073;45.650;9.612;2023-07-20T02:38:28;98652.28;;;25.85;47.92
69796;BME280;57073;45.650;9.612;2023-07-20T02:43:28;98661.56;;;26.09;48.21
69796;BME280;57073;45.650;9.612;2023-07-20T02:48:28;98655.53;;;26.87;46.64
69796;BME280;57073;45.650;9.612;2023-07-20T02:53:29;98664.09;;;27.36;45.79
69796;BME280;57073;45.650;9.612;2023-07-20T02:58:29;98658.69;;;27.63;45.35
69796;BME280;57073;45.650;9.612;2023-07-20T03:03:30;98659.38;;;27.80;44.80
69796;BME280;57073;45.650;9.612;2023-07-20T03:08:30;98670.22;;;27.88;45.19
69796;BME280;57073;45.650;9.612;2023-07-20T03:13:30;98665.13;;;27.90;45.58
69796;BME280;57073;45.650;9.612;2023-07-20T03:18:31;98671.84;;;27.89;44.82
69796;BME280;57073;45.650;9.612;2023-07-20T03:23:31;98664.41;;;27.93;45.12
69796;BME280;57073;45.650;9.612;2023-07-20T03:28:32;98673.44;;;27.90;45.53
69796;BME280;57073;45.650;9.612;2023-07-20T03:33:34;98675.25;;;27.60;47.02
69796;BME280;57073;45.650;9.612;2023-07-20T03:38:34;98683.59;;;27.05;47.99
69796;BME280;57073;45.650;9.612;2023-07-20T03:43:35;98679.66;;;27.06;48.71
69796;BME280;57073;45.650;9.612;2023-07-20T03:48:35;98685.72;;;26.76;49.74
69796;BME280;57073;45.650;9.612;2023-07-20T03:53:36;98679.22;;;26.52;50.61
69796;BME280;57073;45.650;9.612;2023-07-20T03:58:36;98679.84;;;26.30;51.35
69796;BME280;57073;45.650;9.612;2023-07-20T04:03:37;98692.38;;;25.79;52.80
69796;BME280;57073;45.650;9.612;2023-07-20T04:08:37;98698.59;;;25.76;52.81
69796;BME280;57073;45.650;9.612;2023-07-20T04:13:37;98699.84;;;25.51;53.31
69796;BME280;57073;45.650;9.612;2023-07-20T04:18:38;98698.50;;;25.73;53.14
69796;BME280;57073;45.650;9.612;2023-07-20T04:23:38;98703.63;;;26.02;52.30
69796;BME280;57073;45.650;9.612;2023-07-20T04:28:38;98710.63;;;26.28;51.36
69796;BME280;57073;45.650;9.612;2023-07-20T04:33:40;98703.22;;;26.32;50.17
69796;BME280;57073;45.650;9.612;2023-07-20T04:38:41;98697.31;;;26.66;49.50
69796;BME280;57073;45.650;9.612;2023-07-20T04:43:42;98697.38;;;26.85;49.22
69796;BME280;57073;45.650;9.612;2023-07-20T04:48:43;98700.22;;;27.24;48.00
69796;BME280;57073;45.650;9.612;2023-07-20T04:53:43;98708.03;;;27.77;46.75
69796;BME280;57073;45.650;9.612;2023-07-20T04:58:43;98703.69;;;27.99;45.57
69796;BME280;57073;45.650;9.612;2023-07-20T05:03:45;98709.22;;;28.45;44.15
69796;BME280;57073;45.650;9.612;2023-07-20T05:08:45;98697.53;;;28.82;42.43
69796;BME280;57073;45.650;9.612;2023-07-20T05:13:46;98709.53;;;29.17;42.13
69796;BME280;57073;45.650;9.612;2023-07-20T05:18:46;98703.94;;;29.47;41.07
69796;BME280;57073;45.650;9.612;2023-07-20T05:23:46;98708.72;;;29.80;41.28
69796;BME280;57073;45.650;9.612;2023-07-20T05:28:47;98721.00;;;30.13;39.72
69796;BME280;57073;45.650;9.612;2023-07-20T05:33:47;98718.81;;;30.37;40.17
69796;BME280;57073;45.650;9.612;2023-07-20T05:38:47;98716.88;;;30.45;39.60
69796;BME280;57073;45.650;9.612;2023-07-20T05:43:49;98720.56;;;30.56;39.09
69796;BME280;57073;45.650;9.612;2023-07-20T05:48:49;98711.69;;;30.91;39.29
69796;BME280;57073;45.650;9.612;2023-07-20T05:53:50;98711.03;;;31.16;38.67
69796;BME280;57073;45.650;9.612;2023-07-20T05:58:50;98705.56;;;31.27;38.39
69796;BME280;57073;45.650;9.612;2023-07-20T06:03:51;98704.41;;;31.46;38.05
69796;BME280;57073;45.650;9.612;2023-07-20T06:08:51;98706.81;;;31.47;38.05
69796;BME280;57073;45.650;9.612;2023-07-20T06:13:52;98707.75;;;31.87;36.93
69796;BME280;57073;45.650;9.612;2023-07-20T06:18:52;98711.31;;;31.81;36.58
69796;BME280;57073;45.650;9.612;2023-07-20T06:23:53;98717.28;;;31.83;37.18
69796;BME280;57073;45.650;9.612;2023-07-20T06:28:53;98722.09;;;32.00;36.79
69796;BME280;57073;45.650;9.612;2023-07-20T06:33:53;98714.16;;;32.17;36.54
69796;BME280;57073;45.650;9.612;2023-07-20T06:38:55;98726.97;;;32.46;37.11
69796;BME280;57073;45.650;9.612;2023-07-20T06:43:55;98718.16;;;32.16;36.56
69796;BME280;57073;45.650;9.612;2023-07-20T06:48:58;98714.94;;;32.13;36.58
69796;BME280;57073;45.650;9.612;2023-07-20T06:53:58;98720.16;;;32.37;37.05
69796;BME280;57073;45.650;9.612;2023-07-20T06:58:59;98722.16;;;32.58;36.29
69796;BME280;57073;45.650;9.612;2023-07-20T07:03:59;98720.97;;;32.84;36.07
69796;BME280;57073;45.650;9.612;2023-07-20T07:08:59;98707.38;;;32.64;35.73
69796;BME280;57073;45.650;9.612;2023-07-20T07:14:00;98709.41;;;32.82;35.81
69796;BME280;57073;45.650;9.612;2023-07-20T07:19:00;98713.81;;;32.76;36.03
69796;BME280;57073;45.650;9.612;2023-07-20T07:24:01;98709.38;;;32.89;35.85
69796;BME280;57073;45.650;9.612;2023-07-20T07:29:01;98705.03;;;32.81;35.28
69796;BME280;57073;45.650;9.612;2023-07-20T07:34:02;98712.97;;;32.86;35.48
69796;BME280;57073;45.650;9.612;2023-07-20T07:39:03;98708.53;;;33.21;35.05
69796;BME280;57073;45.650;9.612;2023-07-20T07:44:04;98712.56;;;32.95;34.96
69796;BME280;57073;45.650;9.612;2023-07-20T07:49:04;98706.91;;;33.27;34.59
69796;BME280;57073;45.650;9.612;2023-07-20T07:54:04;98724.44;;;33.27;34.76
69796;BME280;57073;45.650;9.612;2023-07-20T07:59:05;98716.31;;;33.69;34.52
69796;BME280;57073;45.650;9.612;2023-07-20T08:04:05;98717.13;;;33.73;34.20
69796;BME280;57073;45.650;9.612;2023-07-20T08:09:06;98714.69;;;33.79;33.66
69796;BME280;57073;45.650;9.612;2023-07-20T08:14:06;98709.09;;;33.75;32.27
69796;BME280;57073;45.650;9.612;2023-07-20T08:19:06;98708.22;;;33.86;32.06
69796;BME280;57073;45.650;9.612;2023-07-20T08:24:07;98712.41;;;33.45;32.26
69796;BME280;57073;45.650;9.612;2023-07-20T08:29:07;98718.28;;;33.76;31.27
69796;BME280;57073;45.650;9.612;2023-07-20T08:34:08;98724.06;;;34.07;30.40
69796;BME280;57073;45.650;9.612;2023-07-20T08:39:08;98717.66;;;34.13;31.00
69796;BME280;57073;45.650;9.612;2023-07-20T08:44:10;98712.09;;;34.06;30.31
69796;BME280;57073;45.650;9.612;2023-07-20T08:49:11;98728.50;;;34.56;31.66
69796;BME280;57073;45.650;9.612;2023-07-20T08:54:12;98728.06;;;34.62;31.69
69796;BME280;57073;45.650;9.612;2023-07-20T08:59:16;98724.78;;;34.25;33.19
69796;BME280;57073;45.650;9.612;2023-07-20T09:04:17;98726.16;;;34.51;32.84
69796;BME280;57073;45.650;9.612;2023-07-20T09:09:17;98722.28;;;34.34;34.25
69796;BME280;57073;45.650;9.612;2023-07-20T09:14:18;98718.22;;;34.46;34.08
69796;BME280;57073;45.650;9.612;2023-07-20T09:19:18;98718.88;;;34.65;33.71
69796;BME280;57073;45.650;9.612;2023-07-20T09:24:19;98714.91;;;34.58;34.13
69796;BME280;57073;45.650;9.612;2023-07-20T09:29:20;98716.59;;;34.45;33.96
69796;BME280;57073;45.650;9.612;2023-07-20T09:34:20;98708.50;;;34.58;33.89
69796;BME280;57073;45.650;9.612;2023-07-20T09:39:21;98702.16;;;34.50;34.33
69796;BME280;57073;45.650;9.612;2023-07-20T09:44:22;98702.81;;;34.69;33.66
69796;BME280;57073;45.650;9.612;2023-07-20T09:49:22;98701.22;;;34.71;33.47
69796;BME280;57073;45.650;9.612;2023-07-20T09:54:23;98685.31;;;34.57;33.93
69796;BME280;57073;45.650;9.612;2023-07-20T09:59:24;98694.03;;;34.21;33.65
69796;BME280;57073;45.650;9.612;2023-07-20T10:04:25;98687.19;;;34.26;33.50
69796;BME280;57073;45.650;9.612;2023-07-20T10:09:26;98686.84;;;34.20;33.07
69796;BME280;57073;45.650;9.612;2023-07-20T10:14:27;98690.50;;;34.07;33.37
69796;BME280;57073;45.650;9.612;2023-07-20T10:19:37;98688.56;;;34.00;33.66
69796;BME280;57073;45.650;9.612;2023-07-20T10:24:45;98677.59;;;33.60;33.70
69796;BME280;57073;45.650;9.612;2023-07-20T10:29:47;98674.34;;;33.76;33.45
69796;BME280;57073;45.650;9.612;2023-07-20T10:34:51;98670.19;;;33.25;34.16
69796;BME280;57073;45.650;9.612;2023-07-20T10:39:55;98678.56;;;33.29;34.58
69796;BME280;57073;45.650;9.612;2023-07-20T10:44:56;98672.59;;;33.16;35.48
69796;BME280;57073;45.650;9.612;2023-07-20T10:49:58;98665.34;;;33.36;35.46
69796;BME280;57073;45.650;9.612;2023-07-20T10:55:10;98662.19;;;33.31;35.20
69796;BME280;57073;45.650;9.612;2023-07-20T11:00:13;98657.50;;;32.95;34.38
69796;BME280;57073;45.650;9.612;2023-07-20T11:05:39;98656.00;;;32.40;33.85
69796;BME280;57073;45.650;9.612;2023-07-20T11:10:40;98652.81;;;32.49;34.52
69796;BME280;57073;45.650;9.612;2023-07-20T11:15:52;98645.19;;;32.78;35.36
69796;BME280;57073;45.650;9.612;2023-07-20T11:21:01;98641.22;;;32.76;34.97
69796;BME280;57073;45.650;9.612;2023-07-20T11:26:02;98640.00;;;32.66;34.82
69796;BME280;57073;45.650;9.612;2023-07-20T11:31:04;98631.66;;;32.51;35.06
69796;BME280;57073;45.650;9.612;2023-07-20T11:36:04;98637.63;;;32.72;35.40
69796;BME280;57073;45.650;9.612;2023-07-20T11:41:06;98630.50;;;32.45;35.62
69796;BME280;57073;45.650;9.612;2023-07-20T11:46:06;98624.53;;;32.18;35.45
69796;BME280;57073;45.650;9.612;2023-07-20T11:51:13;98620.13;;;32.46;35.54
69796;BME280;57073;45.650;9.612;2023-07-20T11:56:14;98621.75;;;32.32;34.82
69796;BME280;57073;45.650;9.612;2023-07-20T12:01:14;98610.56;;;32.40;35.93
69796;BME280;57073;45.650;9.612;2023-07-20T12:06:15;98611.38;;;32.22;35.10
69796;BME280;57073;45.650;9.612;2023-07-20T12:11:36;98611.34;;;31.79;34.93
69796;BME280;57073;45.650;9.612;2023-07-20T12:16:37;98604.91;;;31.43;36.21
69796;BME280;57073;45.650;9.612;2023-07-20T12:21:39;98600.09;;;31.22;36.76
69796;BME280;57073;45.650;9.612;2023-07-20T12:26:41;98590.47;;;31.12;36.30
69796;BME280;57073;45.650;9.612;2023-07-20T12:31:41;98593.22;;;31.01;36.88
69796;BME280;57073;45.650;9.612;2023-07-20T12:36:41;98588.63;;;31.55;36.35
69796;BME280;57073;45.650;9.612;2023-07-20T12:41:42;98587.03;;;31.58;36.43
69796;BME280;57073;45.650;9.612;2023-07-20T12:46:42;98577.94;;;31.72;36.66
69796;BME280;57073;45.650;9.612;2023-07-20T12:51:43;98573.94;;;31.73;36.11
69796;BME280;57073;45.650;9.612;2023-07-20T12:56:43;98571.50;;;31.64;37.24
69796;BME280;57073;45.650;9.612;2023-07-20T13:01:44;98562.69;;;31.23;36.71
69796;BME280;57073;45.650;9.612;2023-07-20T13:06:44;98564.94;;;30.88;36.80
69796;BME280;57073;45.650;9.612;2023-07-20T13:11:45;98562.84;;;30.64;36.47
69796;BME280;57073;45.650;9.612;2023-07-20T13:16:46;98566.22;;;31.12;37.32
69796;BME280;57073;45.650;9.612;2023-07-20T13:21:46;98562.34;;;31.49;36.98
69796;BME280;57073;45.650;9.612;2023-07-20T13:26:46;98558.75;;;31.42;36.93
69796;BME280;57073;45.650;9.612;2023-07-20T13:31:47;98551.44;;;30.97;37.66
69796;BME280;57073;45.650;9.612;2023-07-20T13:36:47;98541.19;;;31.16;35.61
69796;BME280;57073;45.650;9.612;2023-07-20T13:41:47;98540.13;;;30.51;36.77
69796;BME280;57073;45.650;9.612;2023-07-20T13:46:49;98537.94;;;30.92;37.12
69796;BME280;57073;45.650;9.612;2023-07-20T13:51:49;98535.81;;;30.64;37.09
69796;BME280;57073;45.650;9.612;2023-07-20T13:56:50;98533.09;;;30.75;36.38
69796;BME280;57073;45.650;9.612;2023-07-20T14:01:51;98536.91;;;30.41;36.87
69796;BME280;57073;45.650;9.612;2023-07-20T14:06:51;98524.28;;;30.62;35.27
69796;BME280;57073;45.650;9.612;2023-07-20T14:11:52;98535.69;;;29.83;37.83
69796;BME280;57073;45.650;9.612;2023-07-20T14:16:52;98516.13;;;30.24;37.42
69796;BME280;57073;45.650;9.612;2023-07-20T14:21:53;98522.13;;;30.30;36.32
69796;BME280;57073;45.650;9.612;2023-07-20T14:26:53;98513.47;;;30.50;37.14
69796;BME280;57073;45.650;9.612;2023-07-20T14:31:54;98513.06;;;30.48;35.45
69796;BME280;57073;45.650;9.612;2023-07-20T14:36:57;98509.84;;;30.38;35.38
69796;BME280;57073;45.650;9.612;2023-07-20T14:41:58;98495.72;;;30.69;34.96
69796;BME280;57073;45.650;9.612;2023-07-20T14:46:58;98487.00;;;30.92;35.49
69796;BME280;57073;45.650;9.612;2023-07-20T14:51:59;98491.16;;;30.35;36.15
69796;BME280;57073;45.650;9.612;2023-07-20T14:57:00;98488.81;;;30.45;36.48
69796;BME280;57073;45.650;9.612;2023-07-20T15:02:00;98481.31;;;30.59;36.00
69796;BME280;57073;45.650;9.612;2023-07-20T15:07:00;98479.34;;;30.60;36.67
69796;BME280;57073;45.650;9.612;2023-07-20T15:12:01;98482.06;;;30.46;35.04
69796;BME280;57073;45.650;9.612;2023-07-20T15:17:01;98474.25;;;29.99;35.70
69796;BME280;57073;45.650;9.612;2023-07-20T15:22:02;98479.28;;;30.46;37.34
69796;BME280;57073;45.650;9.612;2023-07-20T15:27:03;98477.38;;;30.60;36.68
69796;BME280;57073;45.650;9.612;2023-07-20T15:32:04;98474.28;;;30.03;35.72
69796;BME280;57073;45.650;9.612;2023-07-20T15:37:06;98460.63;;;30.46;35.62
69796;BME280;57073;45.650;9.612;2023-07-20T15:42:07;98468.59;;;30.55;35.58
69796;BME280;57073;45.650;9.612;2023-07-20T15:47:07;98464.63;;;30.49;35.18
69796;BME280;57073;45.650;9.612;2023-07-20T15:52:08;98459.81;;;30.46;35.50
69796;BME280;57073;45.650;9.612;2023-07-20T15:57:08;98455.75;;;30.18;35.42
69796;BME280;57073;45.650;9.612;2023-07-20T16:02:09;98460.91;;;30.27;35.95
69796;BME280;57073;45.650;9.612;2023-07-20T16:07:09;98456.97;;;30.28;35.01
69796;BME280;57073;45.650;9.612;2023-07-20T16:12:10;98441.06;;;30.24;37.40
69796;BME280;57073;45.650;9.612;2023-07-20T16:17:12;98444.56;;;30.11;37.28
69796;BME280;57073;45.650;9.612;2023-07-20T16:22:12;98442.91;;;30.06;36.85
69796;BME280;57073;45.650;9.612;2023-07-20T16:27:13;98434.28;;;30.15;36.86
69796;BME280;57073;45.650;9.612;2023-07-20T16:32:13;98429.41;;;30.04;37.23
69796;BME280;57073;45.650;9.612;2023-07-20T16:37:14;98435.09;;;30.22;37.42
69796;BME280;57073;45.650;9.612;2023-07-20T16:42:14;98434.00;;;30.45;37.07
69796;BME280;57073;45.650;9.612;2023-07-20T16:47:14;98427.53;;;30.19;38.56
69796;BME280;57073;45.650;9.612;2023-07-20T16:52:15;98429.22;;;30.46;37.33
69796;BME280;57073;45.650;9.612;2023-07-20T16:57:17;98428.34;;;30.20;39.68
69796;BME280;57073;45.650;9.612;2023-07-20T17:02:19;98427.44;;;30.09;38.65
69796;BME280;57073;45.650;9.612;2023-07-20T17:07:19;98431.81;;;30.10;39.76
69796;BME280;57073;45.650;9.612;2023-07-20T17:12:19;98432.56;;;29.99;40.06
69796;BME280;57073;45.650;9.612;2023-07-20T17:17:20;98427.13;;;30.21;39.75
69796;BME280;57073;45.650;9.612;2023-07-20T17:22:20;98423.19;;;30.26;39.67
69796;BME280;57073;45.650;9.612;2023-07-20T17:27:21;98422.59;;;29.91;40.52
69796;BME280;57073;45.650;9.612;2023-07-20T17:32:21;98414.97;;;29.77;40.50
69796;BME280;57073;45.650;9.612;2023-07-20T17:37:22;98413.00;;;29.81;39.52
69796;BME280;57073;45.650;9.612;2023-07-20T17:42:22;98418.16;;;29.83;40.12
69796;BME280;57073;45.650;9.612;2023-07-20T17:47:23;98419.63;;;29.62;40.09
69796;BME280;57073;45.650;9.612;2023-07-20T17:52:23;98414.72;;;29.45;40.01
69796;BME280;57073;45.650;9.612;2023-07-20T17:57:24;98407.28;;;29.56;38.99
69796;BME280;57073;45.650;9.612;2023-07-20T18:02:25;98414.00;;;29.55;39.34
69796;BME280;57073;45.650;9.612;2023-07-20T18:07:27;98416.41;;;29.57;38.90
69796;BME280;57073;45.650;9.612;2023-07-20T18:12:27;98404.50;;;29.56;39.37
69796;BME280;57073;45.650;9.612;2023-07-20T18:17:27;98409.22;;;29.52;39.56
69796;BME280;57073;45.650;9.612;2023-07-20T18:22:28;98411.19;;;29.48;39.31
69796;BME280;57073;45.650;9.612;2023-07-20T18:27:28;98416.16;;;29.24;39.35
69796;BME280;57073;45.650;9.612;2023-07-20T18:32:28;98414.47;;;29.13;40.05
69796;BME280;57073;45.650;9.612;2023-07-20T18:37:29;98426.44;;;29.20;39.81
69796;BME280;57073;45.650;9.612;2023-07-20T18:42:29;98418.16;;;29.27;39.32
69796;BME280;57073;45.650;9.612;2023-07-20T18:47:30;98416.13;;;29.21;39.40
69796;BME280;57073;45.650;9.612;2023-07-20T18:52:31;98422.41;;;29.14;40.19
69796;BME280;57073;45.650;9.612;2023-07-20T18:57:32;98429.53;;;29.12;39.64
69796;BME280;57073;45.650;9.612;2023-07-20T19:02:32;98423.84;;;29.01;40.72
69796;BME280;57073;45.650;9.612;2023-07-20T19:07:33;98424.19;;;28.58;41.41
69796;BME280;57073;45.650;9.612;2023-07-20T19:12:33;98417.34;;;28.48;42.57
69796;BME280;57073;45.650;9.612;2023-07-20T19:17:34;98420.00;;;28.41;42.54
69796;BME280;57073;45.650;9.612;2023-07-20T19:22:34;98415.91;;;28.28;42.68
69796;BME280;57073;45.650;9.612;2023-07-20T19:27:35;98415.78;;;28.17;42.84
69796;BME280;57073;45.650;9.612;2023-07-20T19:32:35;98425.31;;;28.50;42.22
69796;BME280;57073;45.650;9.612;2023-07-20T19:37:36;98429.63;;;27.90;43.56
69796;BME280;57073;45.650;9.612;2023-07-20T19:42:36;98445.88;;;28.19;43.37
69796;BME280;57073;45.650;9.612;2023-07-20T19:47:37;98447.19;;;27.98;44.07
69796;BME280;57073;45.650;9.612;2023-07-20T19:52:37;98428.00;;;27.86;43.73
69796;BME280;57073;45.650;9.612;2023-07-20T19:57:43;98444.94;;;27.81;43.76
69796;BME280;57073;45.650;9.612;2023-07-20T20:02:43;98463.13;;;27.82;43.41
69796;BME280;57073;45.650;9.612;2023-07-20T20:08:23;98452.31;;;27.73;43.45
69796;BME280;57073;45.650;9.612;2023-07-20T20:13:27;98461.59;;;27.57;43.30
69796;BME280;57073;45.650;9.612;2023-07-20T20:18:34;98480.78;;;27.70;43.42
69796;BME280;57073;45.650;9.612;2023-07-20T20:23:43;98469.75;;;27.73;43.18
69796;BME280;57073;45.650;9.612;2023-07-20T20:28:44;98489.22;;;28.04;43.62
69796;BME280;57073;45.650;9.612;2023-07-20T20:33:45;98518.16;;;28.33;42.80
69796;BME280;57073;45.650;9.612;2023-07-20T20:38:49;98536.59;;;28.48;43.05
69796;BME280;57073;45.650;9.612;2023-07-20T20:43:50;98536.00;;;28.36;43.26
69796;BME280;57073;45.650;9.612;2023-07-20T20:48:51;98523.88;;;28.17;43.59
69796;BME280;57073;45.650;9.612;2023-07-20T20:53:51;98538.09;;;28.15;42.73
69796;BME280;57073;45.650;9.612;2023-07-20T20:58:52;98532.91;;;28.14;42.22
69796;BME280;57073;45.650;9.612;2023-07-20T21:03:53;98525.03;;;28.16;42.16
69796;BME280;57073;45.650;9.612;2023-07-20T21:08:54;98514.59;;;28.06;42.13
69796;BME280;57073;45.650;9.612;2023-07-20T21:13:58;98508.16;;;27.75;42.22
69796;BME280;57073;45.650;9.612;2023-07-20T21:18:59;98485.94;;;27.71;42.30
69796;BME280;57073;45.650;9.612;2023-07-20T21:23:59;98492.44;;;27.83;42.18
69796;BME280;57073;45.650;9.612;2023-07-20T21:29:00;98482.72;;;27.69;42.84
69796;BME280;57073;45.650;9.612;2023-07-20T21:34:00;98488.00;;;27.51;42.34
69796;BME280;57073;45.650;9.612;2023-07-20T21:39:01;98520.09;;;27.79;41.69
69796;BME280;57073;45.650;9.612;2023-07-20T21:44:01;98500.66;;;27.75;41.26
69796;BME280;57073;45.650;9.612;2023-07-20T21:49:02;98500.53;;;27.68;41.22
69796;BME280;57073;45.650;9.612;2023-07-20T21:54:03;98483.81;;;27.61;42.30
69796;BME280;57073;45.650;9.612;2023-07-20T21:59:05;98475.44;;;27.57;42.89
69796;BME280;57073;45.650;9.612;2023-07-20T22:04:05;98491.03;;;27.69;42.65
69796;BME280;57073;45.650;9.612;2023-07-20T22:09:08;98487.00;;;27.63;43.57
69796;BME280;57073;45.650;9.612;2023-07-20T22:14:09;98493.91;;;27.50;43.80
69796;BME280;57073;45.650;9.612;2023-07-20T22:19:10;98507.88;;;27.57;44.65
69796;BME280;57073;45.650;9.612;2023-07-20T22:24:10;98509.03;;;27.56;45.04
69796;BME280;57073;45.650;9.612;2023-07-20T22:29:11;98493.09;;;27.49;44.87
69796;BME280;57073;45.650;9.612;2023-07-20T22:34:11;98510.53;;;27.50;45.02
69796;BME280;57073;45.650;9.612;2023-07-20T22:39:12;98528.09;;;27.61;45.44
69796;BME280;57073;45.650;9.612;2023-07-20T22:44:13;98538.28;;;27.53;45.42
69796;BME280;57073;45.650;9.612;2023-07-20T22:49:16;98540.88;;;27.69;44.72
69796;BME280;57073;45.650;9.612;2023-07-20T22:54:16;98555.91;;;27.68;46.13
69796;BME280;57073;45.650;9.612;2023-07-20T22:59:17;98539.91;;;27.58;46.49
69796;BME280;57073;45.650;9.612;2023-07-20T23:04:18;98518.00;;;27.26;45.82
69796;BME280;57073;45.650;9.612;2023-07-20T23:09:18;98505.03;;;27.11;46.27
69796;BME280;57073;45.650;9.612;2023-07-20T23:14:18;98513.13;;;26.77;46.89
69796;BME280;57073;45.650;9.612;2023-07-20T23:19:19;98513.97;;;26.81;46.53
69796;BME280;57073;45.650;9.612;2023-07-20T23:24:20;98518.75;;;26.84;47.10
69796;BME280;57073;45.650;9.612;2023-07-20T23:29:21;98524.56;;;26.59;47.87
69796;BME280;57073;45.650;9.612;2023-07-20T23:34:21;98543.06;;;26.75;48.52
69796;BME280;57073;45.650;9.612;2023-07-20T23:39:21;98547.91;;;26.62;48.82
69796;BME280;57073;45.650;9.612;2023-07-20T23:44:23;98548.50;;;26.52;49.21
69796;BME280;57073;45.650;9.612;2023-07-20T23:49:23;98542.53;;;26.50;47.97
69796;BME280;57073;45.650;9.612;2023-07-20T23:54:24;98554.66;;;26.45;48.38
69796;BME280;57073;45.650;9.612;2023-07-20T23:59:25;98559.13;;;26.14;49.16
